Hopedale, Illinois
Current Conditions -  °F | °C
As of 6:35 PM on Sunday 21 Dec 2014 (Local Time) from KAAA Reporting Station
Broken Clouds Broken Clouds  
Wind Chill: 29°   Ceiling: 4100
Heat Index: 35°   Visibility: 10mi
Dew Point: 31°   Wind: 8mph
Humidity: 84%   Direction: 130°SE
Pressure: 30.04"   Gusts: NA
Location:  40.42°N, 89.41°W
Report Text: KAAA 220035Z AUTO 13007KT 10SM BKN041 02/00 A3004 RMK AO2 T00191005
Loading
Personal Weather Stations






























Interactive Weather Map New forecast layout! Learn more

10-Day Weather Forecast

Advertisements
Track Severe Weather on mobile